CST,Max TemperatureF,Mean TemperatureF,Min TemperatureF,Max Dew PointF,MeanDew PointF,Min DewpointF,Max Humidity, Mean Humidity, Min Humidity, Max Sea Level PressureIn, Mean Sea Level PressureIn, Min Sea Level PressureIn, Max VisibilityMiles, Mean VisibilityMiles, Min VisibilityMiles, Max Wind SpeedMPH, Mean Wind SpeedMPH, Max Gust SpeedMPH,PrecipitationIn, CloudCover, Events, WindDirDegrees
2013-1-1,28,24,21,23,20,19,93,82,74,30.35,30.26,30.07,10,8,6,22,14,29,0.00,6,,339
2013-1-2,44,31,18,25,21,15,89,76,43,30.39,30.32,30.24,10,9,5,14,6,,0.00,0,,286
2013-1-3,41,32,23,23,20,17,81,66,41,30.53,30.46,30.37,10,10,10,13,9,,0.00,0,,332
2013-1-4,43,34,24,29,24,19,81,66,45,30.48,30.39,30.27,10,10,10,17,10,20,0.00,4,,207
2013-1-5,48,40,30,30,26,16,85,66,27,30.38,30.24,30.16,10,10,10,17,14,,0.00,4,,236
2013-1-6,52,38,25,26,23,21,85,62,31,30.47,30.39,30.31,10,10,10,12,7,,0.00,0,,280
2013-1-7,46,37,28,26,24,21,75,63,42,30.29,30.19,30.05,10,10,10,21,14,28,0.00,0,,189
2013-1-8,50,40,30,38,32,26,92,74,52,30.19,30.07,30.00,10,10,8,17,12,,0.00,2,,190
2013-1-9,45,40,35,41,36,28,96,82,57,30.35,30.21,30.11,10,6,2,23,13,28,0.32,6,Rain,17
2013-1-10,48,44,41,47,44,40,100,96,93,30.09,29.90,29.80,10,4,0,20,11,,0.43,6,Fog-Rain,40
2013-1-11,64,53,42,46,41,23,93,71,37,29.85,29.72,29.62,10,10,10,26,19,37,0.00,0,,206
2013-1-12,46,35,24,29,20,13,79,61,40,30.12,29.98,29.85,10,10,10,30,19,36,0.00,1,,3
2013-1-13,30,24,16,14,10,8,77,60,40,30.40,30.29,30.14,10,10,10,22,16,30,0.00,1,,10
2013-1-14,32,24,16,15,12,9,78,60,41,30.45,30.38,30.32,10,10,10,15,9,,0.00,3,,39
2013-1-15,35,27,19,17,14,9,82,63,37,30.35,30.30,30.25,10,10,10,13,8,,0.00,4,,360
2013-1-16,51,34,18,30,22,13,81,65,39,30.30,30.23,30.15,10,10,10,15,8,,0.00,1,,276
2013-1-17,54,43,32,30,28,25,76,61,37,30.54,30.47,30.31,10,10,10,16,11,,0.00,0,,360
2013-1-18,59,44,30,32,29,25,85,61,33,30.48,30.33,30.16,10,10,10,23,13,29,0.00,0,,190
2013-1-19,64,48,33,32,28,24,82,58,26,30.26,30.16,30.10,10,10,10,14,9,,0.00,0,,248
2013-1-20,61,46,30,32,27,21,69,54,31,30.29,30.20,30.09,10,10,10,26,8,30,0.00,0,,32
2013-1-21,41,31,21,18,14,10,68,53,33,30.45,30.34,30.29,10,10,10,22,13,20,0.00,0,,54
2013-1-22,60,42,24,33,25,16,83,60,33,30.27,30.22,30.14,10,10,10,18,11,24,0.00,0,,184
2013-1-23,66,46,27,41,34,24,89,73,37,30.24,30.18,30.10,10,10,9,12,5,,0.00,0,,274
2013-1-24,39,34,30,36,26,21,89,74,64,30.28,30.19,30.13,10,10,7,18,12,21,0.00,4,,34
2013-1-25,50,38,25,27,24,21,88,65,39,30.27,30.22,30.16,10,9,6,13,7,,0.00,0,,28
2013-1-26,53,40,28,43,32,23,93,70,50,30.23,30.13,29.99,10,9,6,23,7,34,0.00,1,,158
2013-1-27,73,60,46,55,50,43,100,84,48,30.01,29.89,29.75,10,5,0,24,19,28,0.00,4,Fog-Rain,179
2013-1-28,73,58,42,58,47,37,82,65,46,29.88,29.79,29.69,10,10,10,29,15,38,0.00,1,,190
2013-1-29,62,50,37,56,41,30,100,81,36,29.70,29.62,29.49,10,7,0,34,16,45,0.74,4,Fog-Rain-Thunderstorm,261
2013-1-30,45,36,28,28,23,15,75,62,30,30.09,29.95,29.74,10,10,10,25,20,36,0.00,3,,303
2013-1-31,61,44,24,27,21,15,70,53,21,30.38,30.17,30.04,10,10,10,23,12,29,0.00,0,,349